createdAt,value
2023-01-29T00:00:15.487Z,101288.25
2023-01-29T00:02:44.107Z,101289.06
2023-01-29T00:05:27.136Z,101283.31
2023-01-29T00:07:58.347Z,101289.06
2023-01-29T00:10:27.448Z,101285.81
2023-01-29T00:12:56.192Z,101279.72
2023-01-29T00:15:24.685Z,101272.84
2023-01-29T00:17:53.036Z,101275.47
2023-01-29T00:20:21.458Z,101272.84
2023-01-29T00:22:49.849Z,101272.03
2023-01-29T00:25:19.531Z,101274.81
2023-01-29T00:27:47.912Z,101280.88
2023-01-29T00:30:19.779Z,101287.91
2023-01-29T00:32:48.692Z,101278.38
2023-01-29T00:35:17.159Z,101278.38
2023-01-29T00:37:45.528Z,101278.25
2023-01-29T00:40:15.238Z,101282.66
2023-01-29T00:43:04.862Z,101275.75
2023-01-29T00:45:33.710Z,101275.25
2023-01-29T00:48:02.088Z,101278.03
2023-01-29T00:50:31.103Z,101279.66
2023-01-29T00:52:59.638Z,101285.88
2023-01-29T00:55:27.981Z,101278.03
2023-01-29T00:57:57.757Z,101286.00
2023-01-29T01:00:26.351Z,101287.81
2023-01-29T01:03:05.602Z,101294.84
2023-01-29T01:05:34.444Z,101289.78
2023-01-29T01:08:02.921Z,101289.91
2023-01-29T01:10:33.012Z,101290.06
2023-01-29T01:13:05.305Z,101299.72
2023-01-29T01:15:37.237Z,101285.31
2023-01-29T01:18:06.527Z,101288.75
2023-01-29T01:20:37.092Z,101292.19
2023-01-29T01:23:05.548Z,101295.59
2023-01-29T01:25:34.514Z,101286.25
2023-01-29T01:28:04.276Z,101277.44
2023-01-29T01:30:33.076Z,101280.19
2023-01-29T01:33:02.172Z,101278.56
2023-01-29T01:35:30.634Z,101278.72
2023-01-29T01:37:58.959Z,101273.63
2023-01-29T01:40:27.807Z,101279.84
2023-01-29T01:42:58.998Z,101282.47
2023-01-29T01:45:31.344Z,101278.34
2023-01-29T01:48:05.782Z,101281.63
2023-01-29T01:50:38.144Z,101279.16
2023-01-29T01:53:10.907Z,101281.78
2023-01-29T01:55:45.435Z,101277.53
2023-01-29T01:58:20.167Z,101270.78
2023-01-29T02:00:50.378Z,101276.03
2023-01-29T02:03:38.281Z,101273.41
2023-01-29T02:06:24.594Z,101263.22
2023-01-29T02:09:17.390Z,101266.00
2023-01-29T02:11:45.849Z,101259.13
2023-01-29T02:14:14.189Z,101266.00
2023-01-29T02:16:43.946Z,101265.19
2023-01-29T02:19:20.808Z,101266.81
2023-01-29T02:22:30.203Z,101260.78
2023-01-29T02:25:27.834Z,101250.31
2023-01-29T02:28:37.709Z,101247.69
2023-01-29T02:31:14.979Z,101245.06
2023-01-29T02:33:53.293Z,101241.47
2023-01-29T02:36:33.275Z,101237.22
2023-01-29T02:39:11.965Z,101243.28
2023-01-29T02:41:44.985Z,101237.22
2023-01-29T02:44:23.381Z,101229.53
2023-01-29T02:46:59.353Z,101227.72
2023-01-29T02:49:34.547Z,101234.59
2023-01-29T02:52:11.136Z,101227.88
2023-01-29T02:54:46.756Z,101238.50
2023-01-29T02:57:22.891Z,101238.19
2023-01-29T02:59:58.502Z,101234.91
2023-01-29T03:02:34.734Z,101239.31
2023-01-29T03:05:10.354Z,101246.34
2023-01-29T03:07:44.789Z,101245.38
2023-01-29T03:10:24.469Z,101240.44
2023-01-29T03:12:56.987Z,101251.72
2023-01-29T03:15:31.579Z,101251.72
2023-01-29T03:18:22.501Z,101241.41
2023-01-29T03:20:58.524Z,101249.25
2023-01-29T03:23:48.666Z,101249.44
2023-01-29T03:26:37.371Z,101247.75
2023-01-29T03:29:24.805Z,101268.03
2023-01-29T03:32:06.657Z,101273.56
2023-01-29T03:34:43.684Z,101279.63
2023-01-29T03:37:19.919Z,101277.16
2023-01-29T03:39:48.690Z,101282.22
2023-01-29T03:42:25.707Z,101278.81
2023-01-29T03:45:02.396Z,101273.56
2023-01-29T03:47:47.499Z,101280.59
2023-01-29T03:50:33.923Z,101274.69
2023-01-29T03:53:11.423Z,101267.66
2023-01-29T03:55:49.369Z,101282.41
2023-01-29T03:58:26.465Z,101281.53
2023-01-29T04:00:59.674Z,101278.94
2023-01-29T04:03:35.326Z,101279.91
2023-01-29T04:06:12.750Z,101279.09
2023-01-29T04:08:53.701Z,101293.16
2023-01-29T04:11:24.615Z,101295.59
2023-01-29T04:13:53.723Z,101292.34
2023-01-29T04:16:27.590Z,101293.97
2023-01-29T04:19:11.720Z,101281.88
2023-01-29T04:21:44.333Z,101287.22
2023-01-29T04:24:14.794Z,101281.34
2023-01-29T04:26:59.230Z,101267.56
2023-01-29T04:29:44.717Z,101259.91
2023-01-29T04:32:23.260Z,101266.06
2023-01-29T04:35:02.762Z,101271.31
2023-01-29T04:37:41.397Z,101280.28
2023-01-29T04:40:22.536Z,101281.94
2023-01-29T04:43:01.208Z,101273.25
2023-01-29T04:45:40.189Z,101273.91
2023-01-29T04:48:21.417Z,101268.84
2023-01-29T04:51:00.479Z,101261.81
2023-01-29T04:53:37.945Z,101252.34
2023-01-29T04:56:13.481Z,101239.25
2023-01-29T04:58:45.696Z,101230.44
2023-01-29T05:01:18.264Z,101217.34
2023-01-29T05:03:51.762Z,101225.19
2023-01-29T05:06:23.048Z,101235.00
2023-01-29T05:08:52.751Z,101228.94
2023-01-29T05:11:21.853Z,101211.47
2023-01-29T05:13:50.550Z,101222.88
2023-01-29T05:16:24.104Z,101238.88
2023-01-29T05:18:53.596Z,101239.56
2023-01-29T05:21:25.003Z,101257.16
2023-01-29T05:24:18.479Z,101254.44
2023-01-29T05:27:07.584Z,101258.84
2023-01-29T05:29:36.135Z,101258.16
2023-01-29T05:32:05.238Z,101279.06
2023-01-29T05:34:34.352Z,101270.41
2023-01-29T05:37:04.476Z,101264.38
2023-01-29T05:39:32.933Z,101282.66
2023-01-29T05:42:01.423Z,101272.75
2023-01-29T05:44:29.811Z,101278.78
2023-01-29T05:46:58.201Z,101265.03
2023-01-29T05:49:26.679Z,101266.97
2023-01-29T05:51:55.051Z,101261.75
2023-01-29T05:54:24.836Z,101264.38
2023-01-29T05:56:53.344Z,101259.25
2023-01-29T05:59:21.944Z,101259.13
2023-01-29T06:01:50.465Z,101270.56
2023-01-29T06:04:18.851Z,101251.41
2023-01-29T06:06:49.767Z,101266.00
2023-01-29T06:09:18.156Z,101247.03
2023-01-29T06:11:47.997Z,101255.81
2023-01-29T06:14:16.473Z,101253.38
2023-01-29T06:16:44.893Z,101265.91
2023-01-29T06:19:13.330Z,101278.72
2023-01-29T06:21:41.769Z,101279.97
2023-01-29T06:24:10.841Z,101283.41
2023-01-29T06:26:39.341Z,101273.09
2023-01-29T06:29:09.099Z,101313.13
2023-01-29T06:31:39.309Z,101272.44
2023-01-29T06:34:08.736Z,101262.63
2023-01-29T06:36:37.356Z,101242.97
2023-01-29T06:39:06.254Z,101250.69
2023-01-29T06:41:35.536Z,101262.91
2023-01-29T06:44:04.020Z,101249.84
2023-01-29T06:46:34.561Z,101225.47
2023-01-29T06:49:03.003Z,101239.53
2023-01-29T06:51:31.499Z,101245.59
2023-01-29T06:54:00.148Z,101231.84
2023-01-29T06:56:28.720Z,101239.38
2023-01-29T06:58:57.195Z,101255.06
2023-01-29T07:01:35.675Z,101256.03
2023-01-29T07:04:06.490Z,101286.78
2023-01-29T07:06:36.152Z,101265.69
2023-01-29T07:09:04.978Z,101266.50
2023-01-29T07:11:35.512Z,101258.53
2023-01-29T07:14:03.942Z,101275.16
2023-01-29T07:16:32.422Z,101270.75
2023-01-29T07:19:00.854Z,101265.53
2023-01-29T07:21:30.612Z,101260.28
2023-01-29T07:23:59.063Z,101253.44
2023-01-29T07:26:27.515Z,101264.72
2023-01-29T07:28:56.191Z,101244.59
2023-01-29T07:31:24.702Z,101260.28
2023-01-29T07:33:53.250Z,101261.97
2023-01-29T07:36:21.705Z,101262.25
2023-01-29T07:38:52.516Z,101269.13
2023-01-29T07:41:21.089Z,101264.72
2023-01-29T07:43:49.857Z,101264.72
2023-01-29T07:46:18.329Z,101272.72
2023-01-29T07:48:46.843Z,101277.94
2023-01-29T07:51:17.101Z,101283.00
2023-01-29T07:53:45.620Z,101277.13
2023-01-29T07:56:15.537Z,101290.34
2023-01-29T07:58:44.064Z,101292.00
2023-01-29T08:01:12.635Z,101299.84
2023-01-29T08:03:41.151Z,101293.63
2023-01-29T08:06:09.746Z,101297.06
2023-01-29T08:08:38.278Z,101311.13
2023-01-29T08:11:07.098Z,101277.13
2023-01-29T08:13:36.979Z,101298.06
2023-01-29T08:16:06.890Z,101293.94
2023-01-29T08:18:35.349Z,101305.19
2023-01-29T08:21:03.847Z,101285.41
2023-01-29T08:23:32.408Z,101291.19
2023-01-29T08:26:00.895Z,101292.94
2023-01-29T08:28:29.364Z,101292.00
2023-01-29T08:30:59.468Z,101293.94
2023-01-29T08:33:39.059Z,101279.22
2023-01-29T08:36:09.689Z,101313.34
2023-01-29T08:38:38.246Z,101300.41
2023-01-29T08:41:07.668Z,101310.19
2023-01-29T08:43:37.121Z,101325.59
2023-01-29T08:46:08.361Z,101319.69
2023-01-29T08:48:37.052Z,101319.69
2023-01-29T08:51:05.939Z,101324.78
2023-01-29T08:53:34.532Z,101301.41
2023-01-29T08:56:03.062Z,101318.88
2023-01-29T08:58:31.585Z,101291.47
2023-01-29T09:01:09.198Z,101276.59
2023-01-29T09:03:40.923Z,101257.31
2023-01-29T09:06:11.371Z,101264.19
2023-01-29T09:08:43.056Z,101251.09
2023-01-29T09:11:11.726Z,101241.16
2023-01-29T09:13:40.326Z,101229.06
2023-01-29T09:16:11.414Z,101246.28
2023-01-29T09:18:39.836Z,101246.28
2023-01-29T09:21:08.311Z,101253.13
2023-01-29T09:23:37.111Z,101257.56
2023-01-29T09:26:05.982Z,101248.72
2023-01-29T09:28:34.523Z,101253.97
2023-01-29T09:31:03.753Z,101245.97
2023-01-29T09:33:33.705Z,101266.91
2023-01-29T09:36:04.470Z,101274.75
2023-01-29T09:38:33.003Z,101285.22
2023-01-29T09:41:13.585Z,101289.47
2023-01-29T09:43:48.518Z,101279.00
2023-01-29T09:46:22.475Z,101279.00
2023-01-29T09:49:00.052Z,101281.63
2023-01-29T09:51:35.489Z,101287.81
2023-01-29T09:54:17.582Z,101289.31
2023-01-29T09:56:47.429Z,101291.78
2023-01-29T09:59:24.327Z,101294.13
2023-01-29T10:02:07.963Z,101319.59
2023-01-29T10:05:15.037Z,101308.84
2023-01-29T10:08:28.052Z,101319.94
2023-01-29T10:11:08.267Z,101319.13
2023-01-29T10:13:46.484Z,101335.53
2023-01-29T10:16:34.410Z,101318.84
2023-01-29T10:19:44.894Z,101315.25
2023-01-29T10:22:50.450Z,101307.41
2023-01-29T10:25:21.683Z,101301.06
2023-01-29T10:27:53.859Z,101297.63
2023-01-29T10:30:31.234Z,101285.38
2023-01-29T10:33:04.461Z,101282.63
2023-01-29T10:35:37.641Z,101285.06
2023-01-29T10:38:27.393Z,101249.44
2023-01-29T10:41:09.570Z,101264.84
2023-01-29T10:43:47.949Z,101261.22
2023-01-29T10:46:33.752Z,101265.47
2023-01-29T10:49:16.608Z,101243.56
2023-01-29T10:52:04.731Z,101257.34
2023-01-29T10:54:59.367Z,101235.59
2023-01-29T10:57:48.134Z,101247.53
2023-01-29T11:00:23.960Z,101234.31
2023-01-29T11:02:53.804Z,101236.13
2023-01-29T11:05:30.715Z,101221.06
2023-01-29T11:08:06.672Z,101233.50
2023-01-29T11:10:43.480Z,101221.22
2023-01-29T11:13:16.464Z,101220.13
2023-01-29T11:15:45.670Z,101224.50
2023-01-29T14:11:34.408Z,101013.19
2023-01-29T14:14:42.883Z,101007.94
2023-01-29T14:17:13.884Z,101006.81
2023-01-29T14:19:50.205Z,100999.13
2023-01-29T14:22:24.336Z,101012.88
2023-01-29T14:24:57.516Z,100994.56
2023-01-29T14:27:27.237Z,100989.50
2023-01-29T14:30:02.438Z,100991.31
2023-01-29T14:32:32.493Z,100988.53
2023-01-29T14:35:04.196Z,100997.19
2023-01-29T14:37:36.412Z,100991.97
2023-01-29T14:40:22.904Z,101002.13
2023-01-29T14:43:00.888Z,100990.53
2023-01-29T14:45:31.852Z,100977.44
2023-01-29T14:48:37.521Z,100992.00
2023-01-29T14:51:12.326Z,100980.84
2023-01-29T14:54:04.075Z,100980.69
2023-01-29T14:56:36.698Z,100973.69
2023-01-29T14:59:17.829Z,100981.53
2023-01-29T15:01:52.835Z,100979.88
2023-01-29T15:04:28.157Z,100982.50
2023-01-29T15:07:02.791Z,100985.78
2023-01-29T15:09:44.064Z,100985.63
2023-01-29T15:12:25.893Z,100983.00
2023-01-29T15:15:07.477Z,100976.31
2023-01-29T15:17:43.370Z,100976.44
2023-01-29T15:20:34.450Z,100974.50
2023-01-29T15:23:04.223Z,100977.94
2023-01-29T15:25:37.116Z,100976.31
2023-01-29T15:28:10.246Z,100991.66
2023-01-29T15:30:43.208Z,100990.34
2023-01-29T15:33:14.379Z,100969.88
2023-01-29T15:35:44.526Z,100989.53
2023-01-29T15:38:21.401Z,100994.25
2023-01-29T15:40:57.624Z,100999.19
2023-01-29T15:43:35.708Z,100997.25
2023-01-29T15:46:11.242Z,100987.09
2023-01-29T15:48:43.160Z,100985.91
2023-01-29T15:51:19.450Z,100980.69
2023-01-29T15:53:53.191Z,100977.13
2023-01-29T15:56:27.880Z,100970.22
2023-01-29T15:58:59.355Z,100952.88
2023-01-29T16:01:28.947Z,100971.88
2023-01-29T16:04:01.587Z,100959.59
2023-01-29T16:06:37.384Z,100955.34
2023-01-29T16:09:07.257Z,100949.25
2023-01-29T16:11:36.719Z,100944.03
2023-01-29T16:14:06.626Z,100944.03
2023-01-29T16:16:35.361Z,100951.25
2023-01-29T16:19:14.960Z,100937.47
2023-01-29T16:21:47.198Z,100936.34
2023-01-29T16:24:22.385Z,100946.16
2023-01-29T16:26:56.447Z,100947.31
2023-01-29T16:29:31.748Z,100941.09
2023-01-29T16:32:02.695Z,100936.84
2023-01-29T16:34:33.828Z,100917.03
2023-01-29T16:37:08.309Z,100925.38
2023-01-29T16:39:40.370Z,100913.59
2023-01-29T16:42:28.583Z,100918.16
2023-01-29T16:45:09.878Z,100913.22
2023-01-29T16:47:42.275Z,100906.22
2023-01-29T16:50:36.135Z,100909.81
2023-01-29T16:53:19.848Z,100910.97
2023-01-29T16:55:49.931Z,100907.69
2023-01-29T16:58:21.457Z,100919.94
2023-01-29T17:00:54.002Z,100914.72
2023-01-29T17:03:25.918Z,100918.47
2023-01-29T17:05:54.887Z,100916.66
2023-01-29T17:08:28.169Z,100919.94
2023-01-29T17:10:56.663Z,100925.16
2023-01-29T17:13:31.284Z,100921.56
2023-01-29T17:16:05.326Z,100919.94
2023-01-29T17:18:33.741Z,100928.75
2023-01-29T17:21:02.133Z,100931.53
2023-01-29T17:23:32.031Z,100928.22
2023-01-29T17:26:02.826Z,100926.13
2023-01-29T17:28:31.875Z,100928.41
2023-01-29T17:31:06.245Z,100935.44
2023-01-29T17:33:36.103Z,100942.47
2023-01-29T17:36:05.101Z,100936.56
2023-01-29T17:38:35.608Z,100935.94
2023-01-29T17:41:08.839Z,100952.44
2023-01-29T17:43:37.193Z,100950.78
2023-01-29T17:46:05.990Z,100952.88
2023-01-29T17:48:34.472Z,100956.50
2023-01-29T17:51:05.615Z,100951.56
2023-01-29T17:53:45.159Z,100965.47
2023-01-29T17:56:19.964Z,100960.56
2023-01-29T17:58:48.401Z,100949.13
2023-01-29T18:01:17.104Z,100970.19
2023-01-29T18:03:45.511Z,100964.31
2023-01-29T18:06:24.645Z,100974.78
2023-01-29T18:08:54.608Z,100972.47
2023-01-29T18:11:23.066Z,100964.78
2023-01-29T18:13:52.353Z,100957.38
2023-01-29T18:16:22.088Z,100959.88
2023-01-29T18:18:51.173Z,100966.59
2023-01-29T18:21:19.939Z,100946.91
2023-01-29T18:23:48.346Z,100947.25
2023-01-29T18:26:18.546Z,100948.09
2023-01-29T18:28:46.958Z,100947.41
2023-01-29T18:31:15.398Z,100940.03
2023-01-29T18:33:43.843Z,100945.25
2023-01-29T18:36:12.375Z,100945.56
2023-01-29T18:38:40.880Z,100942.13
2023-01-29T18:41:11.619Z,100937.03
2023-01-29T18:43:43.097Z,100938.03
2023-01-29T18:46:12.337Z,100944.72
2023-01-29T18:48:42.651Z,100940.59
2023-01-29T18:51:11.349Z,100946.50
2023-01-29T18:53:40.070Z,100931.94
2023-01-29T18:56:09.576Z,100944.84
2023-01-29T18:58:38.329Z,100932.25
2023-01-29T19:01:11.988Z,100951.25
2023-01-29T19:03:41.736Z,100943.69
2023-01-29T19:06:12.647Z,100935.19
2023-01-29T19:08:42.986Z,100928.44
2023-01-29T19:11:12.640Z,100952.97
2023-01-29T19:13:42.576Z,100941.53
2023-01-29T19:16:13.603Z,100927.63
2023-01-29T19:18:42.488Z,100936.00
2023-01-29T19:21:13.253Z,100938.78
2023-01-29T19:23:42.378Z,100937.97
2023-01-29T19:26:11.628Z,100944.13
2023-01-29T19:28:40.565Z,100937.16
2023-01-29T19:31:11.468Z,100936.28
2023-01-29T19:33:40.061Z,100932.06
2023-01-29T19:36:09.418Z,100938.41
2023-01-29T19:38:38.771Z,100918.97
2023-01-29T19:41:07.646Z,100944.47
2023-01-29T19:43:38.209Z,100925.81
2023-01-29T19:46:07.515Z,100921.09
2023-01-29T19:48:37.511Z,100904.59
2023-01-29T19:51:09.545Z,100917.31
2023-01-29T19:53:38.766Z,100924.69
2023-01-29T19:56:09.872Z,100925.66
2023-01-29T19:58:38.627Z,100909.31
2023-01-29T20:01:13.877Z,100922.06
2023-01-29T20:03:46.483Z,100914.34
2023-01-29T20:06:17.079Z,100924.50
2023-01-29T20:08:46.758Z,100925.03
2023-01-29T20:11:15.788Z,100918.00
2023-01-29T20:13:44.653Z,100922.28
2023-01-29T20:16:13.201Z,100914.44
2023-01-29T20:18:43.079Z,100938.91
2023-01-29T20:21:14.818Z,100918.66
2023-01-29T20:23:45.689Z,100916.41
2023-01-29T20:26:17.448Z,100913.97
2023-01-29T20:28:48.385Z,100910.34
2023-01-29T20:31:17.741Z,100909.41
2023-01-29T20:33:47.471Z,100908.56
2023-01-29T20:36:15.900Z,100899.75
2023-01-29T20:38:44.690Z,100918.88
2023-01-29T20:41:16.037Z,100918.88
2023-01-29T20:43:44.652Z,100926.41
2023-01-29T20:46:13.766Z,100920.34
2023-01-29T20:48:42.922Z,100924.75
2023-01-29T20:51:18.484Z,100923.13
2023-01-29T20:53:48.605Z,100917.06
2023-01-29T20:56:18.310Z,100924.75
2023-01-29T20:58:53.003Z,100926.72
2023-01-29T21:01:22.081Z,100915.44
2023-01-29T21:03:50.404Z,100916.41
2023-01-29T21:06:20.134Z,100912.16
2023-01-29T21:08:48.426Z,100911.16
2023-01-29T21:11:16.789Z,100903.50
2023-01-29T21:13:46.848Z,100901.88
2023-01-29T21:16:15.266Z,100899.25
2023-01-29T21:18:43.525Z,100890.59
2023-01-29T21:21:11.956Z,100898.44
2023-01-29T21:23:41.630Z,100895.13
2023-01-29T21:26:10.038Z,100907.22
2023-01-29T21:28:38.343Z,100889.91
2023-01-29T21:31:09.984Z,100883.06
2023-01-29T21:33:38.781Z,100879.47
2023-01-29T21:36:10.013Z,100877.66
2023-01-29T21:38:38.664Z,100861.31
2023-01-29T21:41:10.418Z,100862.44
2023-01-29T21:43:39.019Z,100860.81
2023-01-29T21:46:11.953Z,100864.38
2023-01-29T21:48:41.536Z,100872.22
2023-01-29T21:51:09.899Z,100868.78
2023-01-29T21:53:38.226Z,100854.09
2023-01-29T21:56:08.439Z,100844.47
2023-01-29T21:58:36.787Z,100828.25
2023-01-29T22:01:28.094Z,100827.44
2023-01-29T22:03:55.004Z,100823.34
2023-01-29T22:06:23.307Z,100831.19
2023-01-29T22:08:51.940Z,100838.38
2023-01-29T22:11:21.725Z,100831.50
2023-01-29T22:13:50.003Z,100824.47
2023-01-29T22:16:19.012Z,100820.09
2023-01-29T22:18:47.596Z,100822.84
2023-01-29T22:21:16.043Z,100835.09
2023-01-29T22:23:45.253Z,100828.75
2023-01-29T22:26:13.590Z,100812.88
2023-01-29T22:28:43.465Z,100810.13
2023-01-29T22:31:12.212Z,100801.31
2023-01-29T22:33:40.576Z,100793.47
2023-01-29T22:36:10.007Z,100784.00
2023-01-29T22:38:38.349Z,100800.31
2023-01-29T22:41:06.744Z,100788.06
2023-01-29T22:43:35.110Z,100791.50
2023-01-29T22:46:08.763Z,100773.19
2023-01-29T22:48:37.203Z,100782.69
2023-01-29T22:51:12.041Z,100763.72
2023-01-29T22:53:42.341Z,100761.94
2023-01-29T22:56:11.800Z,100763.72
2023-01-29T22:58:41.187Z,100757.84
2023-01-29T23:01:11.678Z,100756.38
2023-01-29T23:03:40.003Z,100745.09
2023-01-29T23:06:08.349Z,100734.66
2023-01-29T23:08:36.670Z,100740.81
2023-01-29T23:11:15.046Z,100731.34
2023-01-29T23:13:44.576Z,100724.19
2023-01-29T23:16:40.571Z,100729.72
2023-01-29T23:19:09.135Z,100719.28
2023-01-29T23:21:37.482Z,100720.25
2023-01-29T23:24:07.150Z,100729.72
2023-01-29T23:26:52.769Z,100736.59
2023-01-29T23:29:21.293Z,100716.81
2023-01-29T23:31:51.036Z,100713.38
2023-01-29T23:34:20.404Z,100711.75
2023-01-29T23:36:48.906Z,100701.47
2023-01-29T23:39:17.720Z,100681.66
2023-01-29T23:41:46.033Z,100686.88
2023-01-29T23:44:14.366Z,100684.44
2023-01-29T23:46:42.723Z,100679.03
2023-01-29T23:49:12.507Z,100693.72
2023-01-29T23:51:40.835Z,100701.47
2023-01-29T23:54:09.306Z,100699.78
2023-01-29T23:56:37.606Z,100693.63
2023-01-29T23:59:05.950Z,100698.97
